Time,TemperatureF,DewpointF,PressureIn,WindDirection,WindDirectionDegrees,WindSpeedMPH,WindSpeedGustMPH,Humidity,HourlyPrecipIn,Conditions,Clouds,dailyrainin,SoftwareType,DateUTC
2013-06-04 00:02:00,63.7,18.0,29.80,East,81,15.0,16.0,17,0.00,,,0.00,meteohub,2013-06-04 07:02:00,
2013-06-04 00:07:00,63.7,19.4,29.80,East,82,6.0,16.0,18,0.00,,,0.00,meteohub,2013-06-04 07:07:00,
2013-06-04 00:12:00,63.9,20.8,29.80,ESE,105,5.0,16.0,19,0.00,,,0.00,meteohub,2013-06-04 07:12:00,
2013-06-04 00:17:00,63.9,24.3,29.80,South,183,7.0,15.0,22,0.00,,,0.00,meteohub,2013-06-04 07:17:00,
2013-06-04 00:22:00,63.7,24.1,29.80,SSE,156,5.0,16.0,22,0.00,,,0.00,meteohub,2013-06-04 07:22:00,
2013-06-04 00:27:00,63.5,20.5,29.80,SW,219,5.0,16.0,19,0.00,,,0.00,meteohub,2013-06-04 07:27:00,
2013-06-04 00:32:00,63.5,19.2,29.80,SSE,158,6.0,16.0,18,0.00,,,0.00,meteohub,2013-06-04 07:32:00,
2013-06-04 00:37:00,63.7,18.0,29.80,SSE,163,7.0,13.0,17,0.00,,,0.00,meteohub,2013-06-04 07:37:00,
2013-06-04 00:42:00,63.5,19.2,29.80,ESE,115,5.0,15.0,18,0.00,,,0.00,meteohub,2013-06-04 07:42:00,
2013-06-04 00:47:00,63.1,20.1,29.80,ESE,121,2.0,15.0,19,0.00,,,0.00,meteohub,2013-06-04 07:47:00,
2013-06-04 00:52:00,63.0,23.5,29.80,ESE,110,2.0,15.0,22,0.00,,,0.00,meteohub,2013-06-04 07:52:00,
2013-06-04 00:57:00,62.8,22.3,29.80,ENE,72,5.0,12.0,21,0.00,,,0.00,meteohub,2013-06-04 07:57:00,
2013-06-04 01:02:00,62.6,22.1,29.80,ESE,106,3.0,12.0,21,0.00,,,0.00,meteohub,2013-06-04 08:02:00,
2013-06-04 01:07:00,62.4,21.9,29.80,SE,136,3.0,11.0,21,0.00,,,0.00,meteohub,2013-06-04 08:07:00,
2013-06-04 01:12:00,62.4,19.6,29.80,SSE,160,2.0,11.0,19,0.00,,,0.00,meteohub,2013-06-04 08:12:00,
2013-06-04 01:22:00,62.8,19.9,29.80,SSE,153,3.0,11.0,19,0.00,,,0.00,meteohub,2013-06-04 08:22:00,
2013-06-04 01:27:00,62.8,19.9,29.80,SSW,197,4.0,12.0,19,0.00,,,0.00,meteohub,2013-06-04 08:27:00,
2013-06-04 01:32:00,62.8,21.0,29.80,SSE,163,3.0,12.0,20,0.00,,,0.00,meteohub,2013-06-04 08:32:00,
2013-06-04 01:37:00,62.6,22.1,29.80,SE,134,5.0,12.0,21,0.00,,,0.00,meteohub,2013-06-04 08:37:00,
2013-06-04 01:42:00,62.6,21.0,29.80,SE,135,11.0,13.0,20,0.00,,,0.00,meteohub,2013-06-04 08:42:00,
2013-06-04 01:47:00,62.6,21.0,29.80,SSW,200,6.0,13.0,20,0.00,,,0.00,meteohub,2013-06-04 08:47:00,
2013-06-04 01:52:00,62.4,24.1,29.80,ESE,110,7.0,14.0,23,0.00,,,0.00,meteohub,2013-06-04 08:52:00,
2013-06-04 01:57:00,62.2,23.0,29.80,SE,138,8.0,14.0,22,0.00,,,0.00,meteohub,2013-06-04 08:57:00,
2013-06-04 02:07:00,62.1,22.8,29.79,East,94,6.0,13.0,22,0.00,,,0.00,meteohub,2013-06-04 09:07:00,
2013-06-04 02:12:00,62.1,21.7,29.79,ESE,109,5.0,14.0,21,0.00,,,0.00,meteohub,2013-06-04 09:12:00,
2013-06-04 02:17:00,62.1,21.7,29.79,SSE,148,9.0,14.0,21,0.00,,,0.00,meteohub,2013-06-04 09:17:00,
2013-06-04 02:22:00,62.1,21.7,29.79,North,352,4.0,13.0,21,0.00,,,0.00,meteohub,2013-06-04 09:22:00,
2013-06-04 02:27:00,62.1,21.7,29.79,SE,135,7.0,13.0,21,0.00,,,0.00,meteohub,2013-06-04 09:27:00,
2013-06-04 02:32:00,62.1,22.8,29.79,ESE,120,6.0,12.0,22,0.00,,,0.00,meteohub,2013-06-04 09:32:00,
2013-06-04 02:37:00,61.9,23.7,29.80,SSE,152,5.0,12.0,23,0.00,,,0.00,meteohub,2013-06-04 09:37:00,
2013-06-04 02:42:00,61.5,22.3,29.79,SSE,149,4.0,12.0,22,0.00,,,0.00,meteohub,2013-06-04 09:42:00,
2013-06-04 02:47:00,61.5,21.2,29.79,SE,144,4.0,12.0,21,0.00,,,0.00,meteohub,2013-06-04 09:47:00,
2013-06-04 02:52:00,61.3,21.0,29.79,ESE,116,4.0,10.0,21,0.00,,,0.00,meteohub,2013-06-04 09:52:00,
2013-06-04 02:57:00,61.5,21.2,29.79,ESE,116,5.0,11.0,21,0.00,,,0.00,meteohub,2013-06-04 09:57:00,
2013-06-04 03:02:00,61.5,18.9,29.79,South,186,5.0,11.0,19,0.00,,,0.00,meteohub,2013-06-04 10:02:00,
2013-06-04 03:07:00,61.5,16.3,29.79,ESE,120,5.0,11.0,17,0.00,,,0.00,meteohub,2013-06-04 10:07:00,
2013-06-04 03:12:00,61.5,16.3,29.79,East,98,6.0,10.0,17,0.00,,,0.00,meteohub,2013-06-04 10:12:00,
2013-06-04 03:17:00,61.5,13.5,29.79,SSE,148,4.0,11.0,15,0.00,,,0.00,meteohub,2013-06-04 10:17:00,
2013-06-04 03:22:00,61.5,10.2,29.79,South,172,4.0,11.0,13,0.00,,,0.00,meteohub,2013-06-04 10:22:00,
2013-06-04 03:27:00,61.9,10.4,29.79,ESE,120,3.0,14.0,13,0.00,,,0.00,meteohub,2013-06-04 10:27:00,
2013-06-04 03:32:00,62.1,8.8,29.79,SE,126,4.0,14.0,12,0.00,,,0.00,meteohub,2013-06-04 10:32:00,
2013-06-04 03:37:00,62.1,8.8,29.80,South,170,6.0,14.0,12,0.00,,,0.00,meteohub,2013-06-04 10:37:00,
2013-06-04 03:42:00,61.9,8.6,29.80,South,170,7.0,10.0,12,0.00,,,0.00,meteohub,2013-06-04 10:42:00,
2013-06-04 03:47:00,61.9,8.6,29.80,South,187,5.0,10.0,12,0.00,,,0.00,meteohub,2013-06-04 10:47:00,
2013-06-04 03:52:00,61.7,10.4,29.80,SE,143,3.0,10.0,13,0.00,,,0.00,meteohub,2013-06-04 10:52:00,
2013-06-04 03:57:00,61.9,10.4,29.80,SSE,160,3.0,11.0,13,0.00,,,0.00,meteohub,2013-06-04 10:57:00,
2013-06-04 04:02:00,62.1,8.8,29.80,SSE,156,4.0,11.0,12,0.00,,,0.00,meteohub,2013-06-04 11:02:00,
2013-06-04 04:07:00,62.1,8.8,29.80,ENE,59,3.0,11.0,12,0.00,,,0.00,meteohub,2013-06-04 11:07:00,
2013-06-04 04:12:00,62.2,7.0,29.80,ENE,77,4.0,11.0,11,0.00,,,0.00,meteohub,2013-06-04 11:12:00,
2013-06-04 04:17:00,62.4,5.2,29.80,SE,124,6.0,11.0,10,0.00,,,0.00,meteohub,2013-06-04 11:17:00,
2013-06-04 04:22:00,62.8,5.4,29.80,ESE,113,6.0,13.0,10,0.00,,,0.00,meteohub,2013-06-04 11:22:00,
2013-06-04 04:27:00,62.8,5.4,29.80,East,94,5.0,13.0,10,0.00,,,0.00,meteohub,2013-06-04 11:27:00,
2013-06-04 04:32:00,63.0,5.5,29.80,SSE,148,6.0,13.0,10,0.00,,,0.00,meteohub,2013-06-04 11:32:00,
2013-06-04 04:37:00,63.1,5.7,29.80,ESE,117,3.0,12.0,10,0.00,,,0.00,meteohub,2013-06-04 11:37:00,
2013-06-04 04:42:00,63.3,3.6,29.80,SSE,158,4.0,10.0,9,0.00,,,0.00,meteohub,2013-06-04 11:42:00,
2013-06-04 04:47:00,63.3,5.7,29.80,ESE,121,4.0,9.0,10,0.00,,,0.00,meteohub,2013-06-04 11:47:00,
2013-06-04 04:52:00,63.5,3.6,29.80,ESE,114,4.0,10.0,9,0.00,,,0.00,meteohub,2013-06-04 11:52:00,
2013-06-04 04:57:00,63.3,3.6,29.80,East,82,2.0,10.0,9,0.00,,,0.00,meteohub,2013-06-04 11:57:00,
2013-06-04 05:07:00,63.1,5.7,29.81,South,172,2.0,12.0,10,0.00,,,0.00,meteohub,2013-06-04 12:07:00,
2013-06-04 05:12:00,63.5,3.6,29.81,ESE,103,3.0,12.0,9,0.00,,,0.00,meteohub,2013-06-04 12:12:00,
2013-06-04 05:22:00,63.5,5.9,29.81,SSE,148,4.0,11.0,10,0.00,,,0.00,meteohub,2013-06-04 12:22:00,
2013-06-04 05:27:00,63.3,5.7,29.81,East,89,2.0,11.0,10,0.00,,,0.00,meteohub,2013-06-04 12:27:00,
2013-06-04 05:32:00,63.3,7.9,29.81,SSW,192,2.0,10.0,11,0.00,,,0.00,meteohub,2013-06-04 12:32:00,
2013-06-04 05:42:00,63.1,9.7,29.81,SSE,160,2.0,12.0,12,0.00,,,0.00,meteohub,2013-06-04 12:42:00,
2013-06-04 05:47:00,63.0,11.3,29.81,ESE,110,3.0,12.0,13,0.00,,,0.00,meteohub,2013-06-04 12:47:00,
2013-06-04 05:52:00,62.8,12.9,29.81,SSE,148,1.0,10.0,14,0.00,,,0.00,meteohub,2013-06-04 12:52:00,
2013-06-04 05:57:00,62.4,14.2,29.81,East,95,3.0,8.0,15,0.00,,,0.00,meteohub,2013-06-04 12:57:00,
2013-06-04 06:02:00,62.6,14.4,29.81,South,170,6.0,8.0,15,0.00,,,0.00,meteohub,2013-06-04 13:02:00,
2013-06-04 06:07:00,62.8,17.2,29.81,East,94,2.0,8.0,17,0.00,,,0.00,meteohub,2013-06-04 13:07:00,
2013-06-04 06:12:00,62.8,18.7,29.82,ESE,105,2.0,8.0,18,0.00,,,0.00,meteohub,2013-06-04 13:12:00,
2013-06-04 06:17:00,62.6,19.8,29.82,East,92,2.0,8.0,19,0.00,,,0.00,meteohub,2013-06-04 13:17:00,
2013-06-04 06:27:00,62.8,19.9,29.82,East,79,4.0,7.0,19,0.00,,,0.00,meteohub,2013-06-04 13:27:00,
2013-06-04 06:37:00,63.0,24.6,29.82,SSE,158,1.0,8.0,23,0.00,,,0.00,meteohub,2013-06-04 13:37:00,
2013-06-04 06:42:00,63.1,24.8,29.82,ESE,111,5.0,8.0,23,0.00,,,0.00,meteohub,2013-06-04 13:42:00,
2013-06-04 06:47:00,63.1,23.7,29.82,SE,138,3.0,7.0,22,0.00,,,0.00,meteohub,2013-06-04 13:47:00,
2013-06-04 06:52:00,63.3,24.8,29.82,SE,133,3.0,7.0,23,0.00,,,0.00,meteohub,2013-06-04 13:52:00,
2013-06-04 07:02:00,63.7,25.2,29.83,East,95,3.0,7.0,23,0.00,,,0.00,meteohub,2013-06-04 14:02:00,
2013-06-04 07:07:00,63.9,24.3,29.83,South,179,3.0,5.0,22,0.00,,,0.00,meteohub,2013-06-04 14:07:00,
2013-06-04 07:12:00,64.0,24.4,29.82,East,86,2.0,6.0,22,0.00,,,0.00,meteohub,2013-06-04 14:12:00,
2013-06-04 07:17:00,64.2,24.6,29.83,ENE,70,4.0,8.0,22,0.00,,,0.00,meteohub,2013-06-04 14:17:00,
2013-06-04 07:22:00,64.4,22.5,29.83,ESE,120,4.0,8.0,20,0.00,,,0.00,meteohub,2013-06-04 14:22:00,
2013-06-04 07:27:00,64.8,23.9,29.83,SSE,160,1.0,7.0,21,0.00,,,0.00,meteohub,2013-06-04 14:27:00,
2013-06-04 07:37:00,65.3,25.5,29.83,ESE,107,2.0,7.0,22,0.00,,,0.00,meteohub,2013-06-04 14:37:00,
2013-06-04 07:42:00,65.7,23.5,29.83,SE,125,2.0,7.0,20,0.00,,,0.00,meteohub,2013-06-04 14:42:00,
2013-06-04 07:47:00,66.0,21.2,29.83,ESE,104,1.0,6.0,18,0.00,,,0.00,meteohub,2013-06-04 14:47:00,
2013-06-04 07:52:00,66.4,20.3,29.83,ESE,122,3.0,6.0,17,0.00,,,0.00,meteohub,2013-06-04 14:52:00,
2013-06-04 07:57:00,66.6,20.3,29.84,East,98,2.0,6.0,17,0.00,,,0.00,meteohub,2013-06-04 14:57:00,
2013-06-04 08:02:00,66.9,12.6,29.84,SE,134,2.0,8.0,12,0.00,,,0.00,meteohub,2013-06-04 15:02:00,
2013-06-04 08:07:00,67.3,18.0,29.84,SE,134,3.0,8.0,15,0.00,,,0.00,meteohub,2013-06-04 15:07:00,
2013-06-04 08:12:00,67.5,16.5,29.84,SE,129,3.0,8.0,14,0.00,,,0.00,meteohub,2013-06-04 15:12:00,
2013-06-04 08:17:00,67.8,9.3,29.84,SSE,160,3.0,8.0,10,0.00,,,0.00,meteohub,2013-06-04 15:17:00,
2013-06-04 08:22:00,68.5,7.5,29.84,ESE,111,4.0,8.0,9,0.00,,,0.00,meteohub,2013-06-04 15:22:00,
2013-06-04 08:27:00,69.1,7.9,29.84,East,101,3.0,9.0,9,0.00,,,0.00,meteohub,2013-06-04 15:27:00,
2013-06-04 08:32:00,69.6,8.2,29.84,SSW,203,1.0,9.0,9,0.00,,,0.00,meteohub,2013-06-04 15:32:00,
2013-06-04 08:37:00,70.3,8.8,29.84,SE,141,3.0,9.0,9,0.00,,,0.00,meteohub,2013-06-04 15:37:00,
2013-06-04 08:42:00,70.7,15.6,29.84,East,94,8.0,9.0,12,0.00,,,0.00,meteohub,2013-06-04 15:42:00,
2013-06-04 08:47:00,70.9,20.8,29.84,East,101,4.0,8.0,15,0.00,,,0.00,meteohub,2013-06-04 15:47:00,
2013-06-04 08:52:00,71.2,19.6,29.84,SSE,163,3.0,9.0,14,0.00,,,0.00,meteohub,2013-06-04 15:52:00,
2013-06-04 08:57:00,71.4,22.8,29.84,SE,124,2.0,9.0,16,0.00,,,0.00,meteohub,2013-06-04 15:57:00,
2013-06-04 09:02:00,71.1,25.3,29.84,ESE,105,5.0,9.0,18,0.00,,,0.00,meteohub,2013-06-04 16:02:00,
2013-06-04 09:07:00,70.9,26.6,29.85,ESE,102,5.0,8.0,19,0.00,,,0.00,meteohub,2013-06-04 16:07:00,
2013-06-04 09:12:00,70.9,27.9,29.85,SSW,200,5.0,8.0,20,0.00,,,0.00,meteohub,2013-06-04 16:12:00,
2013-06-04 09:22:00,70.9,27.9,29.85,ESE,108,3.0,7.0,20,0.00,,,0.00,meteohub,2013-06-04 16:22:00,
2013-06-04 09:27:00,71.1,30.2,29.85,SE,141,3.0,7.0,22,0.00,,,0.00,meteohub,2013-06-04 16:27:00,
2013-06-04 09:32:00,71.4,32.7,29.85,South,177,4.0,7.0,24,0.00,,,0.00,meteohub,2013-06-04 16:32:00,
2013-06-04 09:37:00,71.2,32.5,29.85,WSW,248,4.0,9.0,24,0.00,,,0.00,meteohub,2013-06-04 16:37:00,
2013-06-04 09:42:00,71.8,29.7,29.85,East,94,2.0,9.0,21,0.00,,,0.00,meteohub,2013-06-04 16:42:00,
2013-06-04 09:47:00,72.3,33.4,29.85,ESE,104,1.0,9.0,24,0.00,,,0.00,meteohub,2013-06-04 16:47:00,
2013-06-04 09:52:00,72.5,30.4,29.85,South,181,2.0,6.0,21,0.00,,,0.00,meteohub,2013-06-04 16:52:00,
2013-06-04 09:57:00,72.7,30.6,29.85,SE,141,2.0,7.0,21,0.00,,,0.00,meteohub,2013-06-04 16:57:00,
2013-06-04 10:02:00,71.8,35.1,29.85,East,79,6.0,7.0,26,0.00,,,0.00,meteohub,2013-06-04 17:02:00,
2013-06-04 10:07:00,70.9,36.1,29.85,ENE,72,7.0,8.0,28,0.00,,,0.00,meteohub,2013-06-04 17:07:00,
2013-06-04 10:12:00,69.8,36.1,29.85,SW,231,1.0,9.0,29,0.00,,,0.00,meteohub,2013-06-04 17:12:00,
2013-06-04 10:17:00,70.9,36.1,29.85,ENE,65,0.0,9.0,28,0.00,,,0.00,meteohub,2013-06-04 17:17:00,
2013-06-04 10:22:00,71.2,36.5,29.85,East,80,3.0,9.0,28,0.00,,,0.00,meteohub,2013-06-04 17:22:00,
2013-06-04 10:27:00,71.2,35.6,29.85,ENE,76,0.0,9.0,27,0.00,,,0.00,meteohub,2013-06-04 17:27:00,
2013-06-04 10:32:00,72.3,38.3,29.85,ESE,107,1.0,9.0,29,0.00,,,0.00,meteohub,2013-06-04 17:32:00,
2013-06-04 10:37:00,72.3,39.2,29.86,SSE,167,1.0,9.0,30,0.00,,,0.00,meteohub,2013-06-04 17:37:00,
2013-06-04 10:42:00,72.0,37.9,29.86,NNE,18,1.0,6.0,29,0.00,,,0.00,meteohub,2013-06-04 17:42:00,
2013-06-04 10:47:00,71.6,35.8,29.86,SE,139,4.0,8.0,27,0.00,,,0.00,meteohub,2013-06-04 17:47:00,
2013-06-04 10:52:00,71.4,35.8,29.86,WNW,283,2.0,8.0,27,0.00,,,0.00,meteohub,2013-06-04 17:52:00,
2013-06-04 10:57:00,71.4,38.3,29.86,NNE,12,1.0,8.0,30,0.00,,,0.00,meteohub,2013-06-04 17:57:00,
2013-06-04 11:02:00,72.1,33.4,29.86,SE,137,3.0,7.0,24,0.00,,,0.00,meteohub,2013-06-04 18:02:00,
2013-06-04 11:07:00,71.8,34.0,29.86,SE,128,0.0,7.0,25,0.00,,,0.00,meteohub,2013-06-04 18:07:00,
2013-06-04 11:12:00,73.0,39.7,29.86,NNW,332,0.0,7.0,30,0.00,,,0.00,meteohub,2013-06-04 18:12:00,
2013-06-04 11:17:00,74.5,39.2,29.86,SE,124,0.0,7.0,28,0.00,,,0.00,meteohub,2013-06-04 18:17:00,
2013-06-04 11:22:00,74.5,37.4,29.86,WNW,287,1.0,7.0,26,0.00,,,0.00,meteohub,2013-06-04 18:22:00,
2013-06-04 11:27:00,74.5,37.4,29.86,SW,232,1.0,5.0,26,0.00,,,0.00,meteohub,2013-06-04 18:27:00,
2013-06-04 11:32:00,74.7,35.4,29.86,SSW,206,3.0,5.0,24,0.00,,,0.00,meteohub,2013-06-04 18:32:00,
2013-06-04 11:37:00,75.0,32.4,29.86,ESE,107,2.0,4.0,21,0.00,,,0.00,meteohub,2013-06-04 18:37:00,
2013-06-04 11:42:00,75.0,32.4,29.86,SW,219,1.0,4.0,21,0.00,,,0.00,meteohub,2013-06-04 18:42:00,
2013-06-04 11:47:00,74.5,35.2,29.86,ESE,107,2.0,9.0,24,0.00,,,0.00,meteohub,2013-06-04 18:47:00,
2013-06-04 11:52:00,74.5,38.3,29.86,SSW,204,4.0,9.0,27,0.00,,,0.00,meteohub,2013-06-04 18:52:00,
2013-06-04 11:57:00,74.1,34.0,29.86,WNW,290,2.0,6.0,23,0.00,,,0.00,meteohub,2013-06-04 18:57:00,
2013-06-04 12:02:00,73.9,37.8,29.86,SE,146,2.0,7.0,27,0.00,,,0.00,meteohub,2013-06-04 19:02:00,
2013-06-04 12:07:00,73.9,37.8,29.86,NNE,33,2.0,7.0,27,0.00,,,0.00,meteohub,2013-06-04 19:07:00,
2013-06-04 12:12:00,74.3,39.9,29.86,East,79,4.0,8.0,29,0.00,,,0.00,meteohub,2013-06-04 19:12:00,
2013-06-04 12:17:00,74.5,41.0,29.86,North,359,1.0,8.0,30,0.00,,,0.00,meteohub,2013-06-04 19:17:00,
2013-06-04 12:27:00,74.7,44.4,29.86,East,96,2.0,6.0,34,0.00,,,0.00,meteohub,2013-06-04 19:27:00,
2013-06-04 12:32:00,74.3,44.1,29.86,West,280,2.0,9.0,34,0.00,,,0.00,meteohub,2013-06-04 19:32:00,
2013-06-04 12:37:00,73.8,43.7,29.86,SW,229,1.0,9.0,34,0.00,,,0.00,meteohub,2013-06-04 19:37:00,
2013-06-04 12:42:00,72.9,44.4,29.86,SW,222,3.0,9.0,36,0.00,,,0.00,meteohub,2013-06-04 19:42:00,
2013-06-04 12:47:00,72.3,45.3,29.86,East,100,3.0,7.0,38,0.00,,,0.00,meteohub,2013-06-04 19:47:00,
2013-06-04 12:52:00,71.8,47.5,29.86,SE,146,3.0,7.0,42,0.00,,,0.00,meteohub,2013-06-04 19:52:00,
2013-06-04 12:57:00,71.2,48.2,29.86,SE,143,3.0,10.0,44,0.00,,,0.00,meteohub,2013-06-04 19:57:00,
2013-06-04 13:02:00,70.5,47.5,29.86,SE,139,4.0,12.0,44,0.00,,,0.00,meteohub,2013-06-04 20:02:00,
2013-06-04 13:07:00,70.5,47.5,29.86,WSW,251,8.0,12.0,44,0.00,,,0.00,meteohub,2013-06-04 20:07:00,
2013-06-04 13:12:00,70.3,48.6,29.86,SW,214,3.0,12.0,46,0.00,,,0.00,meteohub,2013-06-04 20:12:00,
2013-06-04 13:17:00,70.3,50.4,29.86,South,176,4.0,11.0,49,0.00,,,0.00,meteohub,2013-06-04 20:17:00,
2013-06-04 13:22:00,70.0,50.0,29.86,South,177,4.0,12.0,49,0.00,,,0.00,meteohub,2013-06-04 20:22:00,
2013-06-04 13:27:00,69.4,48.9,29.86,SW,228,7.0,12.0,48,0.00,,,0.00,meteohub,2013-06-04 20:27:00,
2013-06-04 13:32:00,69.4,48.9,29.85,SSW,197,8.0,12.0,48,0.00,,,0.00,meteohub,2013-06-04 20:32:00,
2013-06-04 13:37:00,69.6,49.6,29.85,SE,143,5.0,12.0,49,0.00,,,0.00,meteohub,2013-06-04 20:37:00,
2013-06-04 13:42:00,69.8,48.0,29.85,ESE,121,4.0,11.0,46,0.00,,,0.00,meteohub,2013-06-04 20:42:00,
2013-06-04 13:47:00,69.8,46.9,29.85,South,190,2.0,12.0,44,0.00,,,0.00,meteohub,2013-06-04 20:47:00,
2013-06-04 13:52:00,70.0,47.7,29.85,SSE,156,2.0,12.0,45,0.00,,,0.00,meteohub,2013-06-04 20:52:00,
2013-06-04 13:57:00,70.2,47.8,29.85,ESE,102,6.0,12.0,45,0.00,,,0.00,meteohub,2013-06-04 20:57:00,
2013-06-04 14:02:00,70.0,48.2,29.85,NE,49,4.0,12.0,46,0.00,,,0.00,meteohub,2013-06-04 21:02:00,
2013-06-04 14:07:00,70.0,47.7,29.85,SE,143,8.0,12.0,45,0.00,,,0.00,meteohub,2013-06-04 21:07:00,
2013-06-04 14:12:00,70.2,48.4,29.85,SSW,207,2.0,12.0,46,0.00,,,0.00,meteohub,2013-06-04 21:12:00,
2013-06-04 14:17:00,70.0,50.0,29.85,ESE,110,4.0,15.0,49,0.00,,,0.00,meteohub,2013-06-04 21:17:00,
2013-06-04 14:22:00,69.6,48.6,29.85,WSW,245,2.0,15.0,47,0.00,,,0.00,meteohub,2013-06-04 21:22:00,
2013-06-04 14:27:00,69.8,50.9,29.85,SSE,158,3.0,15.0,51,0.00,,,0.00,meteohub,2013-06-04 21:27:00,
2013-06-04 14:37:00,69.4,50.0,29.85,WSW,243,4.0,14.0,50,0.00,,,0.00,meteohub,2013-06-04 21:37:00,
2013-06-04 14:42:00,69.4,51.6,29.85,South,170,3.0,14.0,53,0.00,,,0.00,meteohub,2013-06-04 21:42:00,
2013-06-04 14:47:00,68.7,49.8,29.85,East,93,6.0,12.0,51,0.00,,,0.00,meteohub,2013-06-04 21:47:00,
2013-06-04 14:52:00,68.4,49.5,29.85,West,259,4.0,14.0,51,0.00,,,0.00,meteohub,2013-06-04 21:52:00,
2013-06-04 14:57:00,68.4,48.9,29.85,South,177,2.0,14.0,50,0.00,,,0.00,meteohub,2013-06-04 21:57:00,
2013-06-04 15:02:00,68.2,49.8,29.85,SE,145,9.0,14.0,52,0.00,,,0.00,meteohub,2013-06-04 22:02:00,
2013-06-04 15:07:00,68.2,49.8,29.85,SE,127,6.0,14.0,52,0.00,,,0.00,meteohub,2013-06-04 22:07:00,
2013-06-04 15:12:00,67.8,48.0,29.85,East,98,7.0,13.0,49,0.00,,,0.00,meteohub,2013-06-04 22:12:00,
2013-06-04 15:17:00,67.8,49.1,29.85,WSW,258,2.0,13.0,51,0.00,,,0.00,meteohub,2013-06-04 22:17:00,
2013-06-04 15:22:00,67.8,48.0,29.84,SSW,206,6.0,13.0,49,0.00,,,0.00,meteohub,2013-06-04 22:22:00,
2013-06-04 15:27:00,68.2,48.9,29.84,SE,124,4.0,13.0,50,0.00,,,0.00,meteohub,2013-06-04 22:27:00,
2013-06-04 15:32:00,68.4,47.8,29.84,ESE,108,6.0,13.0,48,0.00,,,0.00,meteohub,2013-06-04 22:32:00,
2013-06-04 15:37:00,68.5,48.6,29.84,SE,138,5.0,12.0,49,0.00,,,0.00,meteohub,2013-06-04 22:37:00,
2013-06-04 15:42:00,68.4,48.4,29.84,ESE,121,5.0,12.0,49,0.00,,,0.00,meteohub,2013-06-04 22:42:00,
2013-06-04 15:47:00,68.2,47.7,29.84,SSE,166,5.0,12.0,48,0.00,,,0.00,meteohub,2013-06-04 22:47:00,
2013-06-04 15:52:00,68.0,48.2,29.84,SSE,152,3.0,13.0,49,0.00,,,0.00,meteohub,2013-06-04 22:52:00,
2013-06-04 15:57:00,67.8,48.6,29.84,ENE,71,3.0,13.0,50,0.00,,,0.00,meteohub,2013-06-04 22:57:00,
2013-06-04 16:02:00,67.6,47.3,29.84,East,93,4.0,13.0,48,0.00,,,0.00,meteohub,2013-06-04 23:02:00,
2013-06-04 16:07:00,67.6,47.8,29.84,ESE,113,8.0,14.0,49,0.00,,,0.00,meteohub,2013-06-04 23:07:00,
2013-06-04 16:12:00,67.5,47.1,29.84,East,91,5.0,14.0,48,0.00,,,0.00,meteohub,2013-06-04 23:12:00,
2013-06-04 16:17:00,67.5,48.2,29.84,SSW,192,4.0,14.0,50,0.00,,,0.00,meteohub,2013-06-04 23:17:00,
2013-06-04 16:22:00,67.1,46.8,29.84,SSE,150,3.0,11.0,48,0.00,,,0.00,meteohub,2013-06-04 23:22:00,
2013-06-04 16:27:00,66.9,47.1,29.83,ESE,103,3.0,14.0,49,0.00,,,0.00,meteohub,2013-06-04 23:27:00,
2013-06-04 16:32:00,66.7,45.3,29.84,South,179,4.0,14.0,46,0.00,,,0.00,meteohub,2013-06-04 23:32:00,
2013-06-04 16:37:00,66.6,46.8,29.84,West,261,7.0,14.0,49,0.00,,,0.00,meteohub,2013-06-04 23:37:00,
2013-06-04 16:42:00,66.4,47.1,29.84,SSE,158,8.0,15.0,50,0.00,,,0.00,meteohub,2013-06-04 23:42:00,
2013-06-04 16:47:00,66.0,46.8,29.84,SSE,160,9.0,15.0,50,0.00,,,0.00,meteohub,2013-06-04 23:47:00,
2013-06-04 16:52:00,66.0,46.8,29.84,SE,135,6.0,16.0,50,0.00,,,0.00,meteohub,2013-06-04 23:52:00,
2013-06-04 16:57:00,65.8,45.7,29.84,SSW,201,5.0,16.0,48,0.00,,,0.00,meteohub,2013-06-04 23:57:00,
2013-06-04 17:02:00,65.8,46.8,29.84,SSE,165,6.0,14.0,50,0.00,,,0.00,meteohub,2013-06-05 00:02:00,
2013-06-04 17:07:00,65.8,45.7,29.84,SSE,158,4.0,14.0,48,0.00,,,0.00,meteohub,2013-06-05 00:07:00,
2013-06-04 17:12:00,66.0,45.7,29.84,SW,236,3.0,13.0,48,0.00,,,0.00,meteohub,2013-06-05 00:12:00,
2013-06-04 17:17:00,65.8,46.8,29.84,SSW,197,3.0,13.0,50,0.00,,,0.00,meteohub,2013-06-05 00:17:00,
2013-06-04 17:22:00,65.8,47.7,29.84,SSW,197,3.0,13.0,52,0.00,,,0.00,meteohub,2013-06-05 00:22:00,
2013-06-04 17:27:00,65.7,48.0,29.84,ESE,117,4.0,13.0,53,0.00,,,0.00,meteohub,2013-06-05 00:27:00,
2013-06-04 17:32:00,65.7,47.5,29.83,SSE,167,6.0,13.0,52,0.00,,,0.00,meteohub,2013-06-05 00:32:00,
2013-06-04 17:37:00,65.7,47.5,29.83,SE,133,3.0,14.0,52,0.00,,,0.00,meteohub,2013-06-05 00:37:00,
2013-06-04 17:42:00,65.5,47.8,29.83,SSE,162,6.0,14.0,53,0.00,,,0.00,meteohub,2013-06-05 00:42:00,
2013-06-04 17:47:00,65.1,47.5,29.83,SE,132,3.0,14.0,53,0.00,,,0.00,meteohub,2013-06-05 00:47:00,
2013-06-04 17:52:00,64.9,47.8,29.83,SE,132,5.0,13.0,54,0.00,,,0.00,meteohub,2013-06-05 00:52:00,
2013-06-04 17:57:00,64.6,47.1,29.83,SSW,210,8.0,13.0,53,0.00,,,0.00,meteohub,2013-06-05 00:57:00,
2013-06-04 18:02:00,64.6,48.0,29.83,ESE,117,7.0,13.0,55,0.00,,,0.00,meteohub,2013-06-05 01:02:00,
2013-06-04 18:07:00,64.2,47.7,29.83,SW,227,3.0,13.0,55,0.00,,,0.00,meteohub,2013-06-05 01:07:00,
2013-06-04 18:12:00,64.0,47.5,29.83,SE,136,3.0,13.0,55,0.00,,,0.00,meteohub,2013-06-05 01:12:00,
2013-06-04 18:17:00,63.9,47.8,29.83,East,97,3.0,13.0,56,0.00,,,0.00,meteohub,2013-06-05 01:17:00,
2013-06-04 18:22:00,63.7,48.2,29.83,South,183,7.0,14.0,57,0.00,,,0.00,meteohub,2013-06-05 01:22:00,
2013-06-04 18:27:00,63.3,48.4,29.83,East,88,3.0,14.0,58,0.00,,,0.00,meteohub,2013-06-05 01:27:00,
2013-06-04 18:32:00,62.8,48.2,29.83,SSE,165,6.0,14.0,59,0.00,,,0.00,meteohub,2013-06-05 01:32:00,
2013-06-04 18:37:00,62.2,48.2,29.83,ESE,108,5.0,14.0,60,0.00,,,0.00,meteohub,2013-06-05 01:37:00,
2013-06-04 18:47:00,61.2,48.4,29.83,ESE,120,12.0,14.0,63,0.00,,,0.00,meteohub,2013-06-05 01:47:00,
2013-06-04 18:52:00,60.6,48.0,29.83,SE,133,4.0,14.0,63,0.00,,,0.00,meteohub,2013-06-05 01:52:00,
2013-06-04 18:57:00,60.4,48.2,29.83,ESE,110,4.0,14.0,64,0.00,,,0.00,meteohub,2013-06-05 01:57:00,
2013-06-04 19:02:00,60.1,48.2,29.83,ESE,107,3.0,15.0,65,0.00,,,0.00,meteohub,2013-06-05 02:02:00,
2013-06-04 19:07:00,59.9,48.6,29.83,SSE,163,4.0,15.0,66,0.00,,,0.00,meteohub,2013-06-05 02:07:00,
2013-06-04 19:12:00,59.5,48.6,29.83,SE,131,8.0,15.0,67,0.00,,,0.00,meteohub,2013-06-05 02:12:00,
2013-06-04 19:17:00,59.4,48.7,29.83,SSE,158,8.0,12.0,68,0.00,,,0.00,meteohub,2013-06-05 02:17:00,
2013-06-04 19:22:00,58.8,48.7,29.83,South,180,3.0,13.0,69,0.00,,,0.00,meteohub,2013-06-05 02:22:00,
2013-06-04 19:27:00,58.6,48.9,29.83,SE,131,7.0,13.0,70,0.00,,,0.00,meteohub,2013-06-05 02:27:00,
2013-06-04 19:32:00,58.3,48.9,29.83,SSW,210,2.0,14.0,71,0.00,,,0.00,meteohub,2013-06-05 02:32:00,
2013-06-04 19:37:00,57.9,48.6,29.83,ESE,119,6.0,14.0,71,0.00,,,0.00,meteohub,2013-06-05 02:37:00,
2013-06-04 19:42:00,57.9,48.6,29.83,ESE,104,4.0,12.0,71,0.00,,,0.00,meteohub,2013-06-05 02:42:00,
2013-06-04 19:47:00,57.7,48.4,29.83,ESE,115,4.0,13.0,71,0.00,,,0.00,meteohub,2013-06-05 02:47:00,
2013-06-04 19:52:00,57.7,47.3,29.84,ESE,117,4.0,14.0,68,0.00,,,0.00,meteohub,2013-06-05 02:52:00,
2013-06-04 19:57:00,57.9,45.0,29.84,ESE,120,3.0,14.0,62,0.00,,,0.00,meteohub,2013-06-05 02:57:00,
2013-06-04 20:02:00,58.5,42.8,29.85,East,98,2.0,14.0,56,0.00,,,0.00,meteohub,2013-06-05 03:02:00,
2013-06-04 20:07:00,59.2,41.5,29.85,South,172,5.0,9.0,52,0.00,,,0.00,meteohub,2013-06-05 03:07:00,
2013-06-04 20:12:00,59.7,42.1,29.85,ESE,107,3.0,9.0,52,0.00,,,0.00,meteohub,2013-06-05 03:12:00,
2013-06-04 20:17:00,60.1,40.8,29.85,SE,127,3.0,9.0,49,0.00,,,0.00,meteohub,2013-06-05 03:17:00,
2013-06-04 20:22:00,60.4,37.2,29.85,East,98,4.0,9.0,42,0.00,,,0.00,meteohub,2013-06-05 03:22:00,
2013-06-04 20:27:00,61.0,34.5,29.85,SSW,205,9.0,9.0,37,0.00,,,0.00,meteohub,2013-06-05 03:27:00,
2013-06-04 20:32:00,61.2,33.3,29.85,East,96,5.0,9.0,35,0.00,,,0.00,meteohub,2013-06-05 03:32:00,
2013-06-04 20:37:00,61.3,33.4,29.85,ESE,107,3.0,9.0,35,0.00,,,0.00,meteohub,2013-06-05 03:37:00,
2013-06-04 20:42:00,61.5,32.9,29.85,SE,128,3.0,9.0,34,0.00,,,0.00,meteohub,2013-06-05 03:42:00,
2013-06-04 20:47:00,61.5,30.6,29.86,South,169,4.0,10.0,31,0.00,,,0.00,meteohub,2013-06-05 03:47:00,
2013-06-04 20:52:00,61.7,28.2,29.86,SSW,195,2.0,11.0,28,0.00,,,0.00,meteohub,2013-06-05 03:52:00,
2013-06-04 20:57:00,61.9,29.3,29.86,SE,143,5.0,11.0,29,0.00,,,0.00,meteohub,2013-06-05 03:57:00,
2013-06-04 21:02:00,61.5,35.1,29.86,ESE,107,2.0,11.0,37,0.00,,,0.00,meteohub,2013-06-05 04:02:00,
2013-06-04 21:07:00,61.5,35.6,29.86,SE,138,4.0,9.0,38,0.00,,,0.00,meteohub,2013-06-05 04:07:00,
2013-06-04 21:17:00,61.3,27.9,29.86,SSE,165,4.0,8.0,28,0.00,,,0.00,meteohub,2013-06-05 04:17:00,
2013-06-04 21:22:00,61.3,32.0,29.87,SSW,208,4.0,10.0,33,0.00,,,0.00,meteohub,2013-06-05 04:22:00,
2013-06-04 21:27:00,61.3,29.7,29.87,SSW,203,3.0,10.0,30,0.00,,,0.00,meteohub,2013-06-05 04:27:00,
2013-06-04 21:32:00,61.2,27.0,29.87,SSE,152,0.0,10.0,27,0.00,,,0.00,meteohub,2013-06-05 04:32:00,
2013-06-04 21:37:00,61.2,25.0,29.87,SSW,197,2.0,8.0,25,0.00,,,0.00,meteohub,2013-06-05 04:37:00,
2013-06-04 21:42:00,60.8,21.7,29.88,West,266,0.0,8.0,22,0.00,,,0.00,meteohub,2013-06-05 04:42:00,
2013-06-04 21:47:00,60.8,20.7,29.88,South,187,2.0,6.0,21,0.00,,,0.00,meteohub,2013-06-05 04:47:00,
2013-06-04 21:52:00,61.0,19.6,29.88,SSE,167,0.0,6.0,20,0.00,,,0.00,meteohub,2013-06-05 04:52:00,
2013-06-04 21:57:00,61.0,12.9,29.88,WSW,240,2.0,6.0,15,0.00,,,0.00,meteohub,2013-06-05 04:57:00,
2013-06-04 22:02:00,61.2,11.5,29.88,South,169,1.0,6.0,14,0.00,,,0.00,meteohub,2013-06-05 05:02:00,
2013-06-04 22:07:00,61.3,11.7,29.89,SSW,195,1.0,6.0,14,0.00,,,0.00,meteohub,2013-06-05 05:07:00,
2013-06-04 22:12:00,61.3,6.3,29.89,SSE,150,4.0,6.0,11,0.00,,,0.00,meteohub,2013-06-05 05:12:00,
2013-06-04 22:17:00,61.9,4.6,29.89,SSE,150,3.0,7.0,10,0.00,,,0.00,meteohub,2013-06-05 05:17:00,
2013-06-04 22:22:00,62.2,2.7,29.89,South,188,1.0,7.0,9,0.00,,,0.00,meteohub,2013-06-05 05:22:00,
2013-06-04 22:27:00,62.6,0.5,29.90,ESE,121,1.0,7.0,8,0.00,,,0.00,meteohub,2013-06-05 05:27:00,
2013-06-04 22:32:00,62.8,0.5,29.90,SSE,155,4.0,7.0,8,0.00,,,0.00,meteohub,2013-06-05 05:32:00,
2013-06-04 22:42:00,63.0,0.7,29.90,SSW,212,3.0,7.0,8,0.00,,,0.00,meteohub,2013-06-05 05:42:00,
2013-06-04 22:47:00,63.3,3.6,29.90,South,170,0.0,7.0,9,0.00,,,0.00,meteohub,2013-06-05 05:47:00,
2013-06-04 22:52:00,63.1,5.7,29.90,SW,222,1.0,7.0,10,0.00,,,0.00,meteohub,2013-06-05 05:52:00,
2013-06-04 22:57:00,63.1,5.7,29.91,SW,232,1.0,5.0,10,0.00,,,0.00,meteohub,2013-06-05 05:57:00,
2013-06-04 23:02:00,63.1,5.7,29.91,South,186,2.0,5.0,10,0.00,,,0.00,meteohub,2013-06-05 06:02:00,
2013-06-04 23:07:00,63.0,3.2,29.90,WSW,240,1.0,5.0,9,0.00,,,0.00,meteohub,2013-06-05 06:07:00,
2013-06-04 23:12:00,63.0,5.5,29.90,SSE,163,4.0,5.0,10,0.00,,,0.00,meteohub,2013-06-05 06:12:00,
2013-06-04 23:17:00,63.1,3.4,29.90,WSW,243,0.0,6.0,9,0.00,,,0.00,meteohub,2013-06-05 06:17:00,
2013-06-04 23:22:00,63.3,3.6,29.90,SSE,150,2.0,6.0,9,0.00,,,0.00,meteohub,2013-06-05 06:22:00,
2013-06-04 23:27:00,63.3,3.6,29.90,SSW,195,0.0,6.0,9,0.00,,,0.00,meteohub,2013-06-05 06:27:00,
2013-06-04 23:32:00,63.1,3.4,29.90,SSW,207,4.0,5.0,9,0.00,,,0.00,meteohub,2013-06-05 06:32:00,
2013-06-04 23:37:00,63.1,0.9,29.90,SE,141,3.0,5.0,8,0.00,,,0.00,meteohub,2013-06-05 06:37:00,
2013-06-04 23:42:00,63.0,-2.2,29.90,SSW,207,1.0,5.0,7,0.00,,,0.00,meteohub,2013-06-05 06:42:00,
2013-06-04 23:47:00,63.0,-2.2,29.90,WSW,243,0.0,5.0,7,0.00,,,0.00,meteohub,2013-06-05 06:47:00,
2013-06-04 23:57:00,63.1,-5.3,29.90,South,174,3.0,5.0,6,0.00,,,0.00,meteohub,2013-06-05 06:57:00,